sensor_id;sensor_type;location;lat;lon;timestamp;pressure;altitude;pressure_sealevel;temperature;humidity
11710;BME280;5911;51.036;6.972;2023-08-12T00:01:31;101029.13;;;22.60;100.00
11710;BME280;5911;51.036;6.972;2023-08-12T00:03:59;101034.88;;;22.57;100.00
11710;BME280;5911;51.036;6.972;2023-08-12T00:06:27;101033.22;;;22.56;100.00
11710;BME280;5911;51.036;6.972;2023-08-12T00:08:56;101039.41;;;22.56;100.00
11710;BME280;5911;51.036;6.972;2023-08-12T00:11:23;101031.16;;;22.58;100.00
11710;BME280;5911;51.036;6.972;2023-08-12T00:13:52;101024.69;;;22.52;100.00
11710;BME280;5911;51.036;6.972;2023-08-12T00:16:20;101022.84;;;22.53;100.00
11710;BME280;5911;51.036;6.972;2023-08-12T00:18:48;101026.16;;;22.55;100.00
11710;BME280;5911;51.036;6.972;2023-08-12T00:21:18;101019.50;;;22.51;100.00
11710;BME280;5911;51.036;6.972;2023-08-12T00:24:00;101016.16;;;22.49;100.00
11710;BME280;5911;51.036;6.972;2023-08-12T00:26:31;101013.47;;;22.49;100.00
11710;BME280;5911;51.036;6.972;2023-08-12T00:29:00;101033.78;;;22.51;100.00
11710;BME280;5911;51.036;6.972;2023-08-12T00:31:29;101043.50;;;22.52;100.00
11710;BME280;5911;51.036;6.972;2023-08-12T00:33:57;101035.19;;;22.47;100.00
11710;BME280;5911;51.036;6.972;2023-08-12T00:36:26;101031.41;;;22.41;100.00
11710;BME280;5911;51.036;6.972;2023-08-12T00:38:54;101026.03;;;22.41;100.00
11710;BME280;5911;51.036;6.972;2023-08-12T00:41:22;101022.34;;;22.42;100.00
11710;BME280;5911;51.036;6.972;2023-08-12T00:43:50;101018.63;;;22.43;100.00
11710;BME280;5911;51.036;6.972;2023-08-12T00:46:21;101019.84;;;22.41;100.00
11710;BME280;5911;51.036;6.972;2023-08-12T00:48:49;101008.69;;;22.44;100.00
11710;BME280;5911;51.036;6.972;2023-08-12T00:51:17;100995.06;;;22.45;100.00
11710;BME280;5911;51.036;6.972;2023-08-12T00:53:46;101000.69;;;22.51;100.00
11710;BME280;5911;51.036;6.972;2023-08-12T00:56:14;101012.47;;;22.50;100.00
11710;BME280;5911;51.036;6.972;2023-08-12T00:58:42;101009.56;;;22.51;100.00
11710;BME280;5911;51.036;6.972;2023-08-12T01:01:11;100995.50;;;22.49;100.00
11710;BME280;5911;51.036;6.972;2023-08-12T01:03:44;100994.66;;;22.49;100.00
11710;BME280;5911;51.036;6.972;2023-08-12T01:06:15;100980.56;;;22.46;100.00
11710;BME280;5911;51.036;6.972;2023-08-12T01:08:44;100987.63;;;22.48;100.00
11710;BME280;5911;51.036;6.972;2023-08-12T01:11:16;100975.16;;;22.40;100.00
11710;BME280;5911;51.036;6.972;2023-08-12T01:13:52;100986.34;;;22.43;100.00
11710;BME280;5911;51.036;6.972;2023-08-12T01:16:26;100980.16;;;22.43;100.00
11710;BME280;5911;51.036;6.972;2023-08-12T01:18:58;100964.75;;;22.30;100.00
11710;BME280;5911;51.036;6.972;2023-08-12T01:21:29;100967.47;;;22.37;100.00
11710;BME280;5911;51.036;6.972;2023-08-12T01:23:59;100956.91;;;22.35;100.00
11710;BME280;5911;51.036;6.972;2023-08-12T01:26:27;100945.69;;;22.32;100.00
11710;BME280;5911;51.036;6.972;2023-08-12T01:28:55;100949.03;;;22.34;100.00
11710;BME280;5911;51.036;6.972;2023-08-12T01:31:27;100942.00;;;22.33;100.00
11710;BME280;5911;51.036;6.972;2023-08-12T01:34:06;100940.38;;;22.38;100.00
11710;BME280;5911;51.036;6.972;2023-08-12T01:36:39;100937.91;;;22.37;100.00
11710;BME280;5911;51.036;6.972;2023-08-12T01:39:12;100936.28;;;22.42;100.00
11710;BME280;5911;51.036;6.972;2023-08-12T01:41:40;100932.59;;;22.43;100.00
11710;BME280;5911;51.036;6.972;2023-08-12T01:44:08;100934.63;;;22.41;100.00
11710;BME280;5911;51.036;6.972;2023-08-12T01:46:36;100927.41;;;22.42;100.00
11710;BME280;5911;51.036;6.972;2023-08-12T01:49:04;100923.69;;;22.43;100.00
11710;BME280;5911;51.036;6.972;2023-08-12T01:51:32;100929.19;;;22.35;100.00
11710;BME280;5911;51.036;6.972;2023-08-12T01:54:01;100917.66;;;22.41;100.00
11710;BME280;5911;51.036;6.972;2023-08-12T01:56:30;100918.63;;;22.33;100.00
11710;BME280;5911;51.036;6.972;2023-08-12T01:58:58;100921.72;;;22.30;100.00
11710;BME280;5911;51.036;6.972;2023-08-12T02:01:26;100924.59;;;22.29;100.00
11710;BME280;5911;51.036;6.972;2023-08-12T02:03:54;100920.06;;;22.29;100.00
11710;BME280;5911;51.036;6.972;2023-08-12T02:06:22;100918.41;;;22.28;100.00
11710;BME280;5911;51.036;6.972;2023-08-12T02:08:50;100914.69;;;22.29;100.00
11710;BME280;5911;51.036;6.972;2023-08-12T02:11:18;100915.53;;;22.30;100.00
11710;BME280;5911;51.036;6.972;2023-08-12T02:13:47;100911.56;;;22.26;100.00
11710;BME280;5911;51.036;6.972;2023-08-12T02:16:15;100911.75;;;22.24;100.00
11710;BME280;5911;51.036;6.972;2023-08-12T02:18:43;100907.97;;;22.19;100.00
11710;BME280;5911;51.036;6.972;2023-08-12T02:21:10;100908.41;;;22.22;100.00
11710;BME280;5911;51.036;6.972;2023-08-12T02:23:38;100909.06;;;22.24;100.00
11710;BME280;5911;51.036;6.972;2023-08-12T02:26:06;100903.41;;;22.19;100.00
11710;BME280;5911;51.036;6.972;2023-08-12T02:28:34;100892.38;;;22.07;100.00
11710;BME280;5911;51.036;6.972;2023-08-12T02:31:03;100903.41;;;22.19;100.00
11710;BME280;5911;51.036;6.972;2023-08-12T02:33:31;100914.81;;;22.21;100.00
11710;BME280;5911;51.036;6.972;2023-08-12T02:35:59;100910.25;;;22.22;100.00
11710;BME280;5911;51.036;6.972;2023-08-12T02:38:26;100900.72;;;22.19;100.00
11710;BME280;5911;51.036;6.972;2023-08-12T02:40:54;100898.03;;;22.19;100.00
11710;BME280;5911;51.036;6.972;2023-08-12T02:43:22;100898.03;;;22.19;100.00
11710;BME280;5911;51.036;6.972;2023-08-12T02:45:50;100893.69;;;22.18;100.00
11710;BME280;5911;51.036;6.972;2023-08-12T02:48:19;100896.00;;;22.21;100.00
11710;BME280;5911;51.036;6.972;2023-08-12T02:50:47;100891.19;;;22.17;100.00
11710;BME280;5911;51.036;6.972;2023-08-12T02:53:15;100885.13;;;22.08;100.00
11710;BME280;5911;51.036;6.972;2023-08-12T02:55:44;100893.84;;;22.10;100.00
11710;BME280;5911;51.036;6.972;2023-08-12T02:58:12;100892.44;;;22.14;100.00
11710;BME280;5911;51.036;6.972;2023-08-12T03:00:41;100885.13;;;22.08;100.00
11710;BME280;5911;51.036;6.972;2023-08-12T03:03:10;100889.50;;;22.09;100.00
11710;BME280;5911;51.036;6.972;2023-08-12T03:05:39;100883.47;;;22.07;100.00
11710;BME280;5911;51.036;6.972;2023-08-12T03:08:07;100881.28;;;22.17;100.00
11710;BME280;5911;51.036;6.972;2023-08-12T03:10:37;100879.00;;;22.14;100.00
11710;BME280;5911;51.036;6.972;2023-08-12T03:13:05;100878.56;;;22.10;100.00
11710;BME280;5911;51.036;6.972;2023-08-12T03:15:33;100875.41;;;22.07;100.00
11710;BME280;5911;51.036;6.972;2023-08-12T03:18:01;100878.09;;;22.07;100.00
11710;BME280;5911;51.036;6.972;2023-08-12T03:20:29;100879.50;;;22.03;100.00
11710;BME280;5911;51.036;6.972;2023-08-12T03:22:59;100874.38;;;22.08;100.00
11710;BME280;5911;51.036;6.972;2023-08-12T03:25:27;100866.13;;;22.09;100.00
11710;BME280;5911;51.036;6.972;2023-08-12T03:27:56;100863.19;;;22.04;100.00
11710;BME280;5911;51.036;6.972;2023-08-12T03:30:25;100858.25;;;22.08;100.00
11710;BME280;5911;51.036;6.972;2023-08-12T03:32:54;100858.25;;;22.08;100.00
11710;BME280;5911;51.036;6.972;2023-08-12T03:35:25;100862.81;;;22.07;100.00
11710;BME280;5911;51.036;6.972;2023-08-12T03:37:53;100844.63;;;22.09;100.00
11710;BME280;5911;51.036;6.972;2023-08-12T03:40:23;100820.06;;;21.91;100.00
11710;BME280;5911;51.036;6.972;2023-08-12T03:42:51;100848.81;;;22.12;100.00
11710;BME280;5911;51.036;6.972;2023-08-12T03:45:22;100832.81;;;22.04;100.00
11710;BME280;5911;51.036;6.972;2023-08-12T03:47:50;100842.53;;;22.05;100.00
11710;BME280;5911;51.036;6.972;2023-08-12T03:50:22;100828.44;;;22.03;100.00
11710;BME280;5911;51.036;6.972;2023-08-12T03:52:50;100824.28;;;22.00;100.00
11710;BME280;5911;51.036;6.972;2023-08-12T03:55:18;100813.94;;;21.97;100.00
11710;BME280;5911;51.036;6.972;2023-08-12T03:57:47;100811.44;;;21.96;100.00
11710;BME280;5911;51.036;6.972;2023-08-12T04:00:16;100812.66;;;21.93;100.00
11710;BME280;5911;51.036;6.972;2023-08-12T04:02:43;100808.38;;;21.99;100.00
11710;BME280;5911;51.036;6.972;2023-08-12T04:05:11;100788.91;;;21.97;100.00
11710;BME280;5911;51.036;6.972;2023-08-12T04:07:39;100794.28;;;21.97;100.00
11710;BME280;5911;51.036;6.972;2023-08-12T04:10:09;100784.13;;;21.92;100.00
11710;BME280;5911;51.036;6.972;2023-08-12T04:12:37;100787.84;;;21.91;100.00
11710;BME280;5911;51.036;6.972;2023-08-12T04:15:07;100794.03;;;21.92;100.00
11710;BME280;5911;51.036;6.972;2023-08-12T04:17:35;100796.47;;;21.87;100.00
11710;BME280;5911;51.036;6.972;2023-08-12T04:20:06;100795.22;;;21.83;100.00
11710;BME280;5911;51.036;6.972;2023-08-12T04:22:36;100797.72;;;21.84;100.00
11710;BME280;5911;51.036;6.972;2023-08-12T04:25:04;100797.06;;;21.82;100.00
11710;BME280;5911;51.036;6.972;2023-08-12T04:27:34;100793.47;;;21.75;100.00
11710;BME280;5911;51.036;6.972;2023-08-12T04:30:02;100783.31;;;21.70;100.00
11710;BME280;5911;51.036;6.972;2023-08-12T04:32:31;100789.91;;;21.68;100.00
11710;BME280;5911;51.036;6.972;2023-08-12T04:34:59;100788.06;;;21.68;100.00
11710;BME280;5911;51.036;6.972;2023-08-12T04:37:27;100781.88;;;21.68;100.00
11710;BME280;5911;51.036;6.972;2023-08-12T04:39:55;100782.69;;;21.68;100.00
11710;BME280;5911;51.036;6.972;2023-08-12T04:42:23;100781.03;;;21.67;100.00
11710;BME280;5911;51.036;6.972;2023-08-12T04:44:51;100761.06;;;21.55;100.00
11710;BME280;5911;51.036;6.972;2023-08-12T04:47:19;100788.50;;;21.72;100.00
11710;BME280;5911;51.036;6.972;2023-08-12T04:49:48;100775.47;;;21.69;100.00
11710;BME280;5911;51.036;6.972;2023-08-12T04:52:19;100748.47;;;21.56;100.00
11710;BME280;5911;51.036;6.972;2023-08-12T04:54:52;100782.81;;;21.82;100.00
11710;BME280;5911;51.036;6.972;2023-08-12T04:57:22;100784.84;;;21.80;100.00
11710;BME280;5911;51.036;6.972;2023-08-12T04:59:50;100785.88;;;21.79;100.00
11710;BME280;5911;51.036;6.972;2023-08-12T05:02:19;100785.50;;;21.82;100.00
11710;BME280;5911;51.036;6.972;2023-08-12T05:04:52;100780.53;;;21.85;100.00
11710;BME280;5911;51.036;6.972;2023-08-12T05:07:21;100775.81;;;21.87;100.00
11710;BME280;5911;51.036;6.972;2023-08-12T05:09:49;100777.91;;;21.92;100.00
11710;BME280;5911;51.036;6.972;2023-08-12T05:12:17;100776.25;;;21.91;100.00
11710;BME280;5911;51.036;6.972;2023-08-12T05:14:45;100776.25;;;21.91;100.00
11710;BME280;5911;51.036;6.972;2023-08-12T05:17:13;100769.56;;;21.80;100.00
11710;BME280;5911;51.036;6.972;2023-08-12T05:19:41;100775.81;;;21.87;100.00
11710;BME280;5911;51.036;6.972;2023-08-12T05:22:11;100775.41;;;21.90;100.00
11710;BME280;5911;51.036;6.972;2023-08-12T05:24:39;100775.88;;;21.94;100.00
11710;BME280;5911;51.036;6.972;2023-08-12T05:27:07;100775.69;;;21.95;100.00
11710;BME280;5911;51.036;6.972;2023-08-12T05:29:34;100781.88;;;21.96;100.00
11710;BME280;5911;51.036;6.972;2023-08-12T05:32:02;100777.16;;;21.98;100.00
11710;BME280;5911;51.036;6.972;2023-08-12T05:34:30;100775.09;;;22.00;100.00
11710;BME280;5911;51.036;6.972;2023-08-12T05:36:58;100762.09;;;22.03;100.00
11710;BME280;5911;51.036;6.972;2023-08-12T05:39:27;100763.31;;;22.01;100.00
11710;BME280;5911;51.036;6.972;2023-08-12T05:41:55;100763.97;;;22.03;100.00
11710;BME280;5911;51.036;6.972;2023-08-12T05:44:23;100767.53;;;22.10;100.00
11710;BME280;5911;51.036;6.972;2023-08-12T05:46:51;100767.69;;;22.02;100.00
11710;BME280;5911;51.036;6.972;2023-08-12T05:49:18;100753.34;;;21.95;100.00
11710;BME280;5911;51.036;6.972;2023-08-12T05:51:46;100786.22;;;21.97;100.00
11710;BME280;5911;51.036;6.972;2023-08-12T05:54:14;100788.22;;;21.88;100.00
11710;BME280;5911;51.036;6.972;2023-08-12T05:56:43;100789.09;;;21.95;100.00
11710;BME280;5911;51.036;6.972;2023-08-12T05:59:11;100792.38;;;21.91;100.00
11710;BME280;5911;51.036;6.972;2023-08-12T06:01:39;100791.09;;;21.87;100.00
11710;BME280;5911;51.036;6.972;2023-08-12T06:04:07;100790.25;;;21.86;100.00
11710;BME280;5911;51.036;6.972;2023-08-12T06:06:35;100786.13;;;21.84;100.00
11710;BME280;5911;51.036;6.972;2023-08-12T06:09:04;100789.84;;;21.83;100.00
11710;BME280;5911;51.036;6.972;2023-08-12T06:11:32;100792.34;;;21.84;100.00
11710;BME280;5911;51.036;6.972;2023-08-12T06:14:04;100795.22;;;21.83;100.00
11710;BME280;5911;51.036;6.972;2023-08-12T06:16:32;100780.25;;;21.73;100.00
11710;BME280;5911;51.036;6.972;2023-08-12T06:19:00;100784.22;;;21.77;100.00
11710;BME280;5911;51.036;6.972;2023-08-12T06:21:28;100790.59;;;21.76;100.00
11710;BME280;5911;51.036;6.972;2023-08-12T06:23:56;100783.81;;;21.81;100.00
11710;BME280;5911;51.036;6.972;2023-08-12T06:26:24;100775.78;;;21.81;100.00
11710;BME280;5911;51.036;6.972;2023-08-12T06:28:51;100762.34;;;21.81;100.00
11710;BME280;5911;51.036;6.972;2023-08-12T06:31:21;100773.31;;;21.86;100.00
11710;BME280;5911;51.036;6.972;2023-08-12T06:33:49;100763.59;;;21.85;100.00
11710;BME280;5911;51.036;6.972;2023-08-12T06:36:16;100754.50;;;21.86;100.00
11710;BME280;5911;51.036;6.972;2023-08-12T06:38:44;100730.69;;;21.76;100.00
11710;BME280;5911;51.036;6.972;2023-08-12T06:41:12;100753.91;;;21.84;100.00
11710;BME280;5911;51.036;6.972;2023-08-12T06:43:40;100754.47;;;21.79;100.00
11710;BME280;5911;51.036;6.972;2023-08-12T06:46:08;100735.47;;;21.81;100.00
11710;BME280;5911;51.036;6.972;2023-08-12T06:48:37;100736.50;;;21.80;100.00
11710;BME280;5911;51.036;6.972;2023-08-12T06:51:07;100744.19;;;21.83;100.00
11710;BME280;5911;51.036;6.972;2023-08-12T06:53:38;100728.66;;;21.85;100.00
11710;BME280;5911;51.036;6.972;2023-08-12T06:56:06;100715.69;;;21.88;100.00
11710;BME280;5911;51.036;6.972;2023-08-12T06:58:34;100726.63;;;21.87;100.00
11710;BME280;5911;51.036;6.972;2023-08-12T07:01:02;100743.38;;;21.89;100.00
11710;BME280;5911;51.036;6.972;2023-08-12T07:03:33;100733.28;;;21.91;100.00
11710;BME280;5911;51.036;6.972;2023-08-12T07:06:02;100734.41;;;22.03;100.00
11710;BME280;5911;51.036;6.972;2023-08-12T07:08:32;100724.09;;;22.06;100.00
11710;BME280;5911;51.036;6.972;2023-08-12T07:11:00;100726.59;;;22.08;100.00
11710;BME280;5911;51.036;6.972;2023-08-12T07:13:27;100726.66;;;22.15;100.00
11710;BME280;5911;51.036;6.972;2023-08-12T07:15:55;100712.78;;;22.11;100.00
11710;BME280;5911;51.036;6.972;2023-08-12T07:18:23;100709.84;;;22.06;100.00
11710;BME280;5911;51.036;6.972;2023-08-12T07:20:51;100695.56;;;22.05;100.00
11710;BME280;5911;51.036;6.972;2023-08-12T07:23:22;100710.63;;;22.00;100.00
11710;BME280;5911;51.036;6.972;2023-08-12T07:25:51;100735.38;;;21.95;100.00
11710;BME280;5911;51.036;6.972;2023-08-12T07:28:21;100753.53;;;21.93;100.00
11710;BME280;5911;51.036;6.972;2023-08-12T07:30:48;100766.25;;;21.99;100.00
11710;BME280;5911;51.036;6.972;2023-08-12T07:33:21;100767.16;;;21.92;100.00
11710;BME280;5911;51.036;6.972;2023-08-12T07:35:49;100766.00;;;22.01;100.00
11710;BME280;5911;51.036;6.972;2023-08-12T07:38:18;100754.50;;;22.07;100.00
11710;BME280;5911;51.036;6.972;2023-08-12T07:40:48;100760.31;;;22.10;100.00
11710;BME280;5911;51.036;6.972;2023-08-12T07:43:16;100777.28;;;22.11;100.00
11710;BME280;5911;51.036;6.972;2023-08-12T07:45:44;100772.53;;;21.92;100.00
11710;BME280;5911;51.036;6.972;2023-08-12T07:48:22;100757.25;;;21.92;100.00
11710;BME280;5911;51.036;6.972;2023-08-12T07:50:56;100747.34;;;21.93;100.00
11710;BME280;5911;51.036;6.972;2023-08-12T07:53:25;100745.84;;;22.12;100.00
11710;BME280;5911;51.036;6.972;2023-08-12T07:55:54;100748.97;;;22.15;100.00
11710;BME280;5911;51.036;6.972;2023-08-12T07:58:25;100747.31;;;22.14;100.00
11710;BME280;5911;51.036;6.972;2023-08-12T08:00:53;100744.22;;;22.17;100.00
11710;BME280;5911;51.036;6.972;2023-08-12T08:03:21;100740.31;;;22.20;100.00
11710;BME280;5911;51.036;6.972;2023-08-12T08:05:49;100725.41;;;22.17;100.00
11710;BME280;5911;51.036;6.972;2023-08-12T08:08:18;100734.50;;;22.16;100.00
11710;BME280;5911;51.036;6.972;2023-08-12T08:10:46;100723.34;;;22.19;100.00
11710;BME280;5911;51.036;6.972;2023-08-12T08:13:15;100728.13;;;22.24;100.00
11710;BME280;5911;51.036;6.972;2023-08-12T08:15:43;100730.19;;;22.22;100.00
11710;BME280;5911;51.036;6.972;2023-08-12T08:18:11;100729.22;;;22.29;100.00
11710;BME280;5911;51.036;6.972;2023-08-12T08:20:41;100722.59;;;22.32;100.00
11710;BME280;5911;51.036;6.972;2023-08-12T08:23:11;100719.88;;;22.25;100.00
11710;BME280;5911;51.036;6.972;2023-08-12T08:25:39;100722.59;;;22.32;100.00
11710;BME280;5911;51.036;6.972;2023-08-12T08:28:07;100710.41;;;22.29;100.00
11710;BME280;5911;51.036;6.972;2023-08-12T08:30:37;100720.00;;;22.52;100.00
11710;BME280;5911;51.036;6.972;2023-08-12T08:33:05;100721.91;;;22.58;100.00
11710;BME280;5911;51.036;6.972;2023-08-12T08:35:33;100720.00;;;22.52;100.00
11710;BME280;5911;51.036;6.972;2023-08-12T08:38:03;100728.91;;;22.52;100.00
11710;BME280;5911;51.036;6.972;2023-08-12T08:40:31;100739.84;;;22.51;100.00
11710;BME280;5911;51.036;6.972;2023-08-12T08:43:02;100739.00;;;22.43;100.00
11710;BME280;5911;51.036;6.972;2023-08-12T08:45:32;100744.38;;;22.43;100.00
11710;BME280;5911;51.036;6.972;2023-08-12T08:48:02;100737.66;;;22.26;100.00
11710;BME280;5911;51.036;6.972;2023-08-12T08:50:31;100749.25;;;22.27;100.00
11710;BME280;5911;51.036;6.972;2023-08-12T08:52:59;100755.88;;;22.31;100.00
11710;BME280;5911;51.036;6.972;2023-08-12T08:55:29;100750.50;;;22.31;100.00
11710;BME280;5911;51.036;6.972;2023-08-12T08:57:57;100743.34;;;22.44;100.00
11710;BME280;5911;51.036;6.972;2023-08-12T09:00:31;100756.22;;;22.56;100.00
11710;BME280;5911;51.036;6.972;2023-08-12T09:03:00;100738.47;;;22.68;100.00
11710;BME280;5911;51.036;6.972;2023-08-12T09:05:30;100726.88;;;22.61;100.00
11710;BME280;5911;51.036;6.972;2023-08-12T09:07:59;100734.75;;;22.69;100.00
11710;BME280;5911;51.036;6.972;2023-08-12T09:10:28;100737.44;;;22.69;100.00
11710;BME280;5911;51.036;6.972;2023-08-12T09:12:57;100751.16;;;22.80;100.00
11710;BME280;5911;51.036;6.972;2023-08-12T09:15:25;100757.78;;;22.78;100.00
11710;BME280;5911;51.036;6.972;2023-08-12T09:17:53;100748.69;;;22.79;100.00
11710;BME280;5911;51.036;6.972;2023-08-12T09:20:22;100761.78;;;22.95;100.00
11710;BME280;5911;51.036;6.972;2023-08-12T09:22:55;100738.78;;;22.93;100.00
11710;BME280;5911;51.036;6.972;2023-08-12T09:25:25;100749.56;;;22.99;100.00
11710;BME280;5911;51.036;6.972;2023-08-12T09:27:55;100746.25;;;22.97;100.00
11710;BME280;5911;51.036;6.972;2023-08-12T09:30:31;100749.19;;;23.02;100.00
11710;BME280;5911;51.036;6.972;2023-08-12T09:33:07;100753.34;;;23.18;100.00
11710;BME280;5911;51.036;6.972;2023-08-12T09:35:41;100756.25;;;23.17;100.00
11710;BME280;5911;51.036;6.972;2023-08-12T09:38:12;100755.41;;;23.09;100.00
11710;BME280;5911;51.036;6.972;2023-08-12T09:40:41;100757.72;;;23.19;100.00
11710;BME280;5911;51.036;6.972;2023-08-12T09:43:09;100743.59;;;23.10;100.00
11710;BME280;5911;51.036;6.972;2023-08-12T09:45:38;100737.63;;;23.22;100.00
11710;BME280;5911;51.036;6.972;2023-08-12T09:48:07;100741.97;;;23.23;100.00
11710;BME280;5911;51.036;6.972;2023-08-12T09:50:36;100740.50;;;23.13;100.00
11710;BME280;5911;51.036;6.972;2023-08-12T09:53:05;100747.97;;;23.18;100.00
11710;BME280;5911;51.036;6.972;2023-08-12T09:55:35;100745.88;;;23.13;100.00
11710;BME280;5911;51.036;6.972;2023-08-12T09:58:06;100746.50;;;23.15;100.00
11710;BME280;5911;51.036;6.972;2023-08-12T10:00:35;100755.22;;;23.18;100.00
11710;BME280;5911;51.036;6.972;2023-08-12T10:03:04;100751.28;;;23.13;100.00
11710;BME280;5911;51.036;6.972;2023-08-12T10:05:33;100742.78;;;23.17;100.00
11710;BME280;5911;51.036;6.972;2023-08-12T10:08:02;100731.81;;;23.18;100.00
11710;BME280;5911;51.036;6.972;2023-08-12T10:10:34;100744.44;;;23.24;100.00
11710;BME280;5911;51.036;6.972;2023-08-12T10:13:03;100743.81;;;23.22;100.00
11710;BME280;5911;51.036;6.972;2023-08-12T10:15:34;100742.59;;;23.18;100.00
11710;BME280;5911;51.036;6.972;2023-08-12T10:18:03;100736.34;;;23.11;100.00
11710;BME280;5911;51.036;6.972;2023-08-12T10:20:36;100742.97;;;23.08;100.00
11710;BME280;5911;51.036;6.972;2023-08-12T10:23:05;100733.44;;;22.99;100.00
11710;BME280;5911;51.036;6.972;2023-08-12T10:25:37;100735.53;;;23.10;100.00
11710;BME280;5911;51.036;6.972;2023-08-12T10:28:11;100740.50;;;23.13;100.00
11710;BME280;5911;51.036;6.972;2023-08-12T10:30:40;100738.84;;;23.06;100.00
11710;BME280;5911;51.036;6.972;2023-08-12T10:33:09;100704.63;;;22.93;100.00
11710;BME280;5911;51.036;6.972;2023-08-12T10:35:45;100721.88;;;23.05;100.00
11710;BME280;5911;51.036;6.972;2023-08-12T10:38:17;100730.34;;;23.09;100.00
11710;BME280;5911;51.036;6.972;2023-08-12T10:40:47;100732.19;;;23.08;100.00
11710;BME280;5911;51.036;6.972;2023-08-12T10:43:20;100726.41;;;23.05;100.00
11710;BME280;5911;51.036;6.972;2023-08-12T10:45:52;100726.81;;;23.02;100.00
11710;BME280;5911;51.036;6.972;2023-08-12T10:48:22;100733.84;;;22.96;100.00
11710;BME280;5911;51.036;6.972;2023-08-12T10:50:53;100728.03;;;22.93;100.00
11710;BME280;5911;51.036;6.972;2023-08-12T10:53:25;100730.75;;;22.99;100.00
11710;BME280;5911;51.036;6.972;2023-08-12T10:55:59;100724.72;;;22.97;100.00
11710;BME280;5911;51.036;6.972;2023-08-12T10:58:29;100718.31;;;22.98;100.00
11710;BME280;5911;51.036;6.972;2023-08-12T11:01:00;100717.88;;;22.95;100.00
11710;BME280;5911;51.036;6.972;2023-08-12T11:03:32;100719.75;;;22.88;100.00
11710;BME280;5911;51.036;6.972;2023-08-12T11:06:04;100708.34;;;22.92;100.00
11710;BME280;5911;51.036;6.972;2023-08-12T11:08:33;100709.00;;;22.94;100.00
11710;BME280;5911;51.036;6.972;2023-08-12T11:11:03;100656.28;;;22.52;100.00
11710;BME280;5911;51.036;6.972;2023-08-12T11:13:47;100705.25;;;22.82;100.00
11710;BME280;5911;51.036;6.972;2023-08-12T11:16:17;100703.59;;;22.81;100.00
11710;BME280;5911;51.036;6.972;2023-08-12T11:18:48;100710.63;;;22.82;100.00
11710;BME280;5911;51.036;6.972;2023-08-12T11:21:17;100710.78;;;22.74;100.00
11710;BME280;5911;51.036;6.972;2023-08-12T11:23:50;100709.75;;;22.75;100.00
11710;BME280;5911;51.036;6.972;2023-08-12T11:26:24;100694.22;;;22.70;100.00
11710;BME280;5911;51.036;6.972;2023-08-12T11:28:52;100692.03;;;22.87;100.00
11710;BME280;5911;51.036;6.972;2023-08-12T11:31:23;100685.81;;;22.93;100.00
11710;BME280;5911;51.036;6.972;2023-08-12T11:33:54;100693.06;;;22.99;100.00
11710;BME280;5911;51.036;6.972;2023-08-12T11:36:21;100691.19;;;22.93;100.00
11710;BME280;5911;51.036;6.972;2023-08-12T11:38:52;100692.44;;;22.97;100.00
11710;BME280;5911;51.036;6.972;2023-08-12T11:41:23;100688.69;;;22.92;100.00
11710;BME280;5911;51.036;6.972;2023-08-12T11:43:51;100700.88;;;22.81;100.00
11710;BME280;5911;51.036;6.972;2023-08-12T11:46:21;100692.59;;;22.76;100.00
11710;BME280;5911;51.036;6.972;2023-08-12T11:48:51;100694.00;;;22.72;100.00
11710;BME280;5911;51.036;6.972;2023-08-12T11:51:19;100696.50;;;22.73;100.00
11710;BME280;5911;51.036;6.972;2023-08-12T11:53:47;100692.78;;;22.74;100.00
11710;BME280;5911;51.036;6.972;2023-08-12T11:56:15;100700.03;;;22.74;100.00
11710;BME280;5911;51.036;6.972;2023-08-12T11:58:44;100698.22;;;22.88;100.00
11710;BME280;5911;51.036;6.972;2023-08-12T12:01:20;100692.84;;;22.94;100.00
11710;BME280;5911;51.036;6.972;2023-08-12T12:03:50;100688.09;;;22.96;100.00
11710;BME280;5911;51.036;6.972;2023-08-12T12:06:28;100693.28;;;23.04;100.00
11710;BME280;5911;51.036;6.972;2023-08-12T12:08:56;100682.94;;;23.28;100.00
11710;BME280;5911;51.036;6.972;2023-08-12T12:11:24;100686.69;;;23.33;100.00
11710;BME280;5911;51.036;6.972;2023-08-12T12:13:54;100680.47;;;23.33;100.00
11710;BME280;5911;51.036;6.972;2023-08-12T12:16:22;100683.22;;;23.53;100.00
11710;BME280;5911;51.036;6.972;2023-08-12T12:18:57;100682.97;;;23.54;100.00
11710;BME280;5911;51.036;6.972;2023-08-12T12:21:25;100682.56;;;23.57;100.00
11710;BME280;5911;51.036;6.972;2023-08-12T12:23:53;100687.53;;;23.67;100.00
11710;BME280;5911;51.036;6.972;2023-08-12T12:26:22;100667.84;;;23.79;100.00
11710;BME280;5911;51.036;6.972;2023-08-12T12:28:50;100678.78;;;23.98;100.00
11710;BME280;5911;51.036;6.972;2023-08-12T12:31:19;100667.75;;;24.06;100.00
11710;BME280;5911;51.036;6.972;2023-08-12T12:33:47;100697.78;;;24.16;100.00
11710;BME280;5911;51.036;6.972;2023-08-12T12:36:17;100691.13;;;24.38;100.00
11710;BME280;5911;51.036;6.972;2023-08-12T12:38:45;100687.38;;;24.39;100.00
11710;BME280;5911;51.036;6.972;2023-08-12T12:41:13;100703.19;;;24.16;100.00
11710;BME280;5911;51.036;6.972;2023-08-12T12:43:41;100693.25;;;24.03;100.00
11710;BME280;5911;51.036;6.972;2023-08-12T12:46:08;100653.13;;;23.69;100.00
11710;BME280;5911;51.036;6.972;2023-08-12T12:48:38;100693.88;;;24.12;100.00
11710;BME280;5911;51.036;6.972;2023-08-12T12:51:07;100691.59;;;24.09;100.00
11710;BME280;5911;51.036;6.972;2023-08-12T12:53:35;100702.41;;;23.96;100.00
11710;BME280;5911;51.036;6.972;2023-08-12T12:56:03;100705.31;;;23.88;100.00
11710;BME280;5911;51.036;6.972;2023-08-12T12:58:35;100706.97;;;23.89;100.00
11710;BME280;5911;51.036;6.972;2023-08-12T13:01:04;100706.19;;;24.52;100.00